Flight Track Log - Related Links

Times and Time Zones

All times are in EDT time to prevent confusion due to time zone crossing. See the FLG3735 flight status page for this flight to view local times or setup timezone preferences in your user account.

Time Position Orientation Groundspeed Altitude Reporting Facility
EDT Latitude Longitude Course Direction KTS MPH feet Rate Location/Type
Thu 10:11:17 PM 42.2017 -83.3583 56° Northeast 156 180 1,300  Level Cleveland Center
Thu 10:11:47 PM 42.1806 -83.3600 183° South 167 192 2,400 1,906 Climbing Cleveland Center
Thu 10:12:42 PM 42.1286 -83.3522 174° South 209 241 4,000 1,862 Climbing Cleveland Center
Thu 10:13:43 PM 42.0667 -83.3356 169° South 270 311 6,000 2,410 Climbing Cleveland Center
Thu 10:14:00 PM 42.3149 -82.7589 75° East  Level FlightAware
Thu 10:14:44 PM 42.0647 -83.2375 91° East 280 322 8,900  Level Cleveland Center
Thu 10:15:00 PM 42.3309 -82.6075 82° East  Level FlightAware
Thu 10:15:34 PM 42.0939 -83.1519 65° Northeast 310 357 10,700  Level Cleveland Center
Thu 10:16:00 PM 42.3604 -82.4626 56° Northeast  Level FlightAware
Thu 10:16:34 PM 42.1381 -83.0389 62° Northeast 324 373 12,300  Level Cleveland Center
Thu 10:17:34 PM 42.1842 -82.9203 62° Northeast 339 390 13,800 1,500 Climbing Cleveland Center
Thu 10:18:34 PM 42.2325 -82.7986 62° Northeast 353 406 15,300 1,450 Climbing Cleveland Center
Thu 10:19:34 PM 42.2828 -82.6656 63° Northeast 371 427 16,700 1,400 Climbing Cleveland Center
Thu 10:20:34 PM 42.3353 -82.5353 61° Northeast 382 440 18,100 1,400 Climbing Cleveland Center
Thu 10:21:34 PM 42.3667 -82.3903 74° East 393 452 19,500 1,450 Climbing Cleveland Center
Thu 10:22:34 PM 42.3586 -82.2411 94° East 382 440 21,000 1,250 Climbing Cleveland Center
Thu 10:23:34 PM 42.3542 -82.1031 92° East 394 453 22,000 1,000 Climbing Cleveland Center
Thu 10:24:34 PM 42.3458 -81.9486 94° East 411 473 23,000 1,000 Climbing Cleveland Center
Thu 10:25:34 PM 42.3392 -81.7967 93° East 411 473 24,000 750 Climbing Cleveland Center
Thu 10:26:34 PM 42.3325 -81.6308 93° East 421 484 24,500 500 Climbing Cleveland Center
Thu 10:27:34 PM 42.3236 -81.4536 94° East 427 491 25,000 500 Climbing Cleveland Center
Thu 10:28:34 PM 42.3164 -81.2825 93° East 444 511 25,500 500 Climbing Cleveland Center
Thu 10:29:34 PM 42.3069 -81.1139 94° East 449 517 26,000 500 Climbing Cleveland Center
Thu 10:30:34 PM 42.2969 -80.9397 94° East 454 522 26,500 500 Climbing Cleveland Center
Thu 10:31:34 PM 42.2892 -80.7656 93° East 466 536 27,000 500 Climbing Cleveland Center
Thu 10:32:34 PM 42.2789 -80.5917 95° East 461 531 27,500 500 Climbing Cleveland Center
Thu 10:33:34 PM 42.2683 -80.4175 95° East 461 531 28,000 500 Climbing Cleveland Center
Thu 10:34:34 PM 42.2617 -80.2633 93° East 461 531 28,500 500 Climbing Cleveland Center
Thu 10:35:34 PM 42.2550 -80.0867 93° East 461 531 29,000 250 Climbing Cleveland Center
Thu 10:36:34 PM 42.2750 -79.9181 81° East 456 525 29,000  Level Cleveland Center
Thu 10:37:34 PM 42.2925 -79.7411 82° East 463 533 29,000  Level Cleveland Center
Thu 10:38:34 PM 42.3097 -79.5667 82° East 463 533 29,000  Level Cleveland Center
Thu 10:39:34 PM 42.3269 -79.3897 82° East 469 540 29,000  Level Cleveland Center
Thu 10:40:34 PM 42.3458 -79.2067 82° East 475 547 29,000 -50 Level Cleveland Center
Thu 10:41:34 PM 42.3644 -79.0292 82° East 475 547 28,900 -800 Descending Cleveland Center
Thu 10:42:34 PM 42.3825 -78.8461 82° East 480 552 27,400 -950 Descending Cleveland Center
Thu 10:43:34 PM 42.3986 -78.6825 82° East 475 547 27,000 -200 Descending Cleveland Center
Thu 10:44:34 PM 42.4128 -78.5244 83° East 444 511 27,000  Level Cleveland Center
Thu 10:45:34 PM 42.4264 -78.3639 83° East 431 496 27,000  Level Cleveland Center
Thu 10:46:34 PM 42.4419 -78.2000 83° East 431 496 27,000  Level Cleveland Center
Thu 10:47:34 PM 42.4569 -78.0333 83° East 431 496 27,000  Level Cleveland Center
Thu 10:48:34 PM 42.4719 -77.8611 83° East 445 512 27,000  Level Cleveland Center
Thu 10:49:34 PM 42.4844 -77.6917 84° East 450 518 27,000  Level Cleveland Center
Thu 10:50:34 PM 42.4989 -77.5219 83° East 450 518 27,000  Level Cleveland Center
Thu 10:51:34 PM 42.5144 -77.3294 84° East 450 518 27,000  Level Cleveland Center
Thu 10:52:34 PM 42.5303 -77.1569 83° East 461 531 27,000  Level Cleveland Center
Thu 10:55:03 PM 42.5628 -76.7453 84° East 461 531 27,000  Level Boston Center
Thu 10:56:03 PM 42.5753 -76.5711 84° East 461 531 27,000  Level Boston Center
Thu 10:57:03 PM 42.5878 -76.3972 84° East 461 531 27,000  Level Boston Center
Thu 10:58:03 PM 42.6028 -76.2033 84° East 461 531 27,000  Level Boston Center
Thu 10:59:03 PM 42.6147 -76.0319 85° East 461 531 27,000  Level Boston Center
Thu 11:00:03 PM 42.6283 -75.8550 84° East 461 531 27,000  Level Boston Center
Thu 11:01:03 PM 42.6375 -75.6831 86° East 461 531 27,000 -50 Level Boston Center
Thu 11:02:03 PM 42.6486 -75.5086 85° East 461 531 26,900  Descending Boston Center
Thu 11:03:03 PM 42.6617 -75.3342 84° East 461 531 27,000 -850 Climbing Boston Center
Thu 11:04:03 PM 42.6700 -75.1622 86° East 461 531 25,200 -2,136 Descending Boston Center
Thu 11:05:15 PM 42.6819 -75.0075 84° East 439 505 22,300 -2,909 Descending Boston Center
Thu 11:06:15 PM 42.6922 -74.8272 86° East 413 475 18,800 -3,150 Descending Boston Center
Thu 11:07:15 PM 42.6989 -74.6975 86° East 385 443 16,000 -3,000 Descending Boston Center
Thu 11:08:01 PM 42.7075 -74.5819 84° East 365 420 13,500 -2,774 Descending Boston Center
Thu 11:09:01 PM 42.7139 -74.4519 86° East 346 398 11,100 -1,357 Descending Boston Center
Thu 11:09:56 PM 42.7158 -74.3392 89° East 315 362 10,900 -324 Descending Boston Center
Thu 11:10:15 PM 42.7103 -74.2994 101° East 325 374 10,700 -1,100 Descending Boston Center
Thu 11:10:56 PM 42.7011 -74.2314 100° East 283 326 9,800 -1,300 Descending Boston Center
Thu 11:11:15 PM 42.6994 -74.2058 95° East 292 336 9,400 -1,967 Descending Boston Center
Thu 11:11:57 PM 42.6881 -74.1236 101° East 289 333 7,800 -2,200 Descending Boston Center
Thu 11:12:15 PM 42.6844 -74.0894 98° East 287 330 7,200 -2,066 Descending Boston Center
Thu 11:12:58 PM 42.6769 -74.0189 98° East 277 319 5,700 -2,100 Descending Boston Center
Thu 11:13:15 PM 42.6711 -73.9903 105° East 276 318 5,100 -2,100 Descending Boston Center
Thu 11:13:58 PM 42.6619 -73.9111 99° East 270 311 3,600 -2,000 Descending Boston Center
Thu 11:14:15 PM 42.6600 -73.8883 97° East 276 318 3,100 -1,475 Descending Boston Center
Thu 11:14:59 PM 42.6506 -73.8233 101° East 228 262 2,100 -1,364 Descending Boston Center

Login

Don't have an account? Register now (free) for customized features, flight alerts, and more!